Time;durP1;ratioP1;P1;durP2;ratioP2;P2;SDS_P1;SDS_P2;PMS_P1;PMS_P2;Temp;Humidity;BMP_temperature;BMP_pressure;BME280_temperature;BME280_humidity;BME280_pressure;Samples;Min_cycle;Max_cycle;Signal;HPM_P1;HPM_P2
2024/04/01 00:01:09;;;;;;;13.05;9.82;;;9.70;99.90;;;;;;6116777;23;20005;-78
2024/04/01 00:03:36;;;;;;;13.55;11.43;;;9.70;99.90;;;;;;6117747;23;20017;-78
2024/04/01 00:06:02;;;;;;;13.88;10.88;;;9.70;99.90;;;;;;6117331;23;20013;-78
2024/04/01 00:08:28;;;;;;;14.75;10.40;;;9.60;99.90;;;;;;6117093;23;20005;-78
2024/04/01 00:10:55;;;;;;;16.38;10.55;;;9.60;99.90;;;;;;6150780;23;20017;-77
2024/04/01 00:13:21;;;;;;;11.15;8.98;;;9.50;99.90;;;;;;6117428;23;20397;-78
2024/04/01 00:15:48;;;;;;;13.15;9.13;;;9.60;99.90;;;;;;6151600;23;20013;-79
2024/04/01 00:18:14;;;;;;;12.80;8.48;;;9.50;99.90;;;;;;6150730;23;20009;-79
2024/04/01 00:20:40;;;;;;;13.73;9.75;;;9.50;99.90;;;;;;6116272;23;20013;-77
2024/04/01 00:23:07;;;;;;;11.63;8.82;;;9.50;99.90;;;;;;6141050;23;20009;-77
2024/04/01 00:25:33;;;;;;;11.57;8.65;;;9.40;99.90;;;;;;6117134;23;20005;-78
2024/04/01 00:28:00;;;;;;;10.52;8.13;;;9.40;99.90;;;;;;6116385;23;20008;-78
2024/04/01 00:30:28;;;;;;;10.55;8.85;;;9.40;99.90;;;;;;6116857;23;20009;-78
2024/04/01 00:32:54;;;;;;;10.90;8.80;;;9.40;99.90;;;;;;6151564;23;20020;-78
2024/04/01 00:35:21;;;;;;;12.40;9.50;;;9.40;99.90;;;;;;6092808;23;20013;-78
2024/04/01 00:37:47;;;;;;;12.73;8.90;;;9.30;99.90;;;;;;6177897;23;20718;-78
2024/04/01 00:40:13;;;;;;;10.90;7.85;;;9.30;99.90;;;;;;6151541;23;20012;-78
2024/04/01 00:42:39;;;;;;;12.40;8.82;;;9.30;99.90;;;;;;6151695;23;20020;-77
2024/04/01 00:45:09;;;;;;;11.50;8.52;;;9.30;99.90;;;;;;6151084;23;20015;-78
2024/04/01 00:47:35;;;;;;;11.38;8.18;;;9.30;99.90;;;;;;6116083;23;20036;-77
2024/04/01 00:50:02;;;;;;;9.80;7.35;;;9.30;99.90;;;;;;6151128;23;20005;-78
2024/04/01 00:52:29;;;;;;;8.10;7.18;;;9.30;99.90;;;;;;6116873;23;20024;-78
2024/04/01 00:54:57;;;;;;;9.82;7.93;;;9.30;99.90;;;;;;6116152;23;20027;-78
2024/04/01 00:57:24;;;;;;;9.55;6.97;;;9.20;99.90;;;;;;6140377;23;20028;-78
2024/04/01 00:59:53;;;;;;;12.00;7.75;;;9.20;99.90;;;;;;6092523;23;20345;-80
2024/04/01 01:02:20;;;;;;;9.48;7.28;;;9.20;99.90;;;;;;6141394;23;20473;-79
2024/04/01 01:04:48;;;;;;;8.48;6.70;;;9.20;99.90;;;;;;6178011;23;20012;-78
2024/04/01 01:07:15;;;;;;;10.45;7.80;;;9.20;99.90;;;;;;6116088;23;20020;-79
2024/04/01 01:09:42;;;;;;;9.18;7.20;;;9.10;99.90;;;;;;6150886;23;20801;-79
2024/04/01 01:12:08;;;;;;;10.43;7.78;;;9.10;99.90;;;;;;6116947;23;20009;-78
2024/04/01 01:14:35;;;;;;;8.05;7.13;;;9.10;99.90;;;;;;6116066;23;20393;-77
2024/04/01 01:17:01;;;;;;;9.40;6.95;;;9.10;99.90;;;;;;6126775;23;20017;-78
2024/04/01 01:19:27;;;;;;;8.73;7.78;;;9.10;99.90;;;;;;6091934;23;20016;-78
2024/04/01 01:22:03;;;;;;;9.30;8.15;;;9.10;99.90;;;;;;6116312;23;20012;-79
2024/04/01 01:24:30;;;;;;;8.30;7.25;;;9.10;99.90;;;;;;6177699;23;20553;-78
2024/04/01 01:26:56;;;;;;;8.35;7.25;;;9.10;99.90;;;;;;6116296;23;20008;-78
2024/04/01 01:29:23;;;;;;;9.10;6.88;;;9.10;99.90;;;;;;6126681;23;20016;-78
2024/04/01 01:31:49;;;;;;;11.25;8.75;;;9.10;99.90;;;;;;6177856;23;20445;-78
2024/04/01 01:34:16;;;;;;;10.48;7.53;;;9.10;99.90;;;;;;6126649;23;20368;-79
2024/04/01 01:36:43;;;;;;;9.43;8.40;;;9.10;99.90;;;;;;6151500;23;20009;-79
2024/04/01 01:39:12;;;;;;;11.38;7.70;;;9.10;99.90;;;;;;6140922;23;20009;-77
2024/04/01 01:41:39;;;;;;;12.82;7.10;;;9.10;99.90;;;;;;6178400;23;20024;-78
2024/04/01 01:44:05;;;;;;;10.07;6.63;;;9.00;99.90;;;;;;6091704;23;20013;-78
2024/04/01 01:46:32;;;;;;;9.10;6.35;;;9.00;99.90;;;;;;6125196;23;20013;-77
2024/04/01 01:48:59;;;;;;;8.30;5.97;;;9.10;99.90;;;;;;6115350;23;20012;-78
2024/04/01 01:51:27;;;;;;;8.45;6.40;;;9.10;99.90;;;;;;6115788;23;20040;-77
2024/04/01 01:53:53;;;;;;;10.25;6.07;;;9.10;99.90;;;;;;6091435;23;20013;-78
2024/04/01 01:56:19;;;;;;;7.00;6.30;;;9.10;99.90;;;;;;6175956;23;20013;-78
2024/04/01 01:58:45;;;;;;;7.30;5.82;;;9.10;99.90;;;;;;6177008;23;20016;-78
2024/04/01 02:01:12;;;;;;;9.23;5.63;;;9.10;99.90;;;;;;6115345;23;20005;-78
2024/04/01 02:03:38;;;;;;;7.55;6.03;;;9.10;99.90;;;;;;6115181;23;20013;-77
2024/04/01 02:06:05;;;;;;;7.95;6.45;;;9.10;99.90;;;;;;6090336;23;20509;-77
2024/04/01 02:08:31;;;;;;;10.13;6.65;;;9.10;99.90;;;;;;6089793;23;20331;-78
2024/04/01 02:10:57;;;;;;;8.68;6.32;;;9.10;99.90;;;;;;6175873;23;20338;-77
2024/04/01 02:13:24;;;;;;;8.35;6.72;;;9.10;99.90;;;;;;6146232;23;20319;-78
2024/04/01 02:15:50;;;;;;;9.90;6.32;;;9.10;99.90;;;;;;6150257;23;20013;-77
2024/04/01 02:18:16;;;;;;;7.20;6.15;;;9.10;99.90;;;;;;6150356;23;20020;-79
2024/04/01 02:20:43;;;;;;;6.93;5.80;;;9.10;99.90;;;;;;6125564;23;20027;-79
2024/04/01 02:23:10;;;;;;;6.50;5.85;;;9.10;99.90;;;;;;6125910;23;20011;-79
2024/04/01 02:25:37;;;;;;;6.88;6.15;;;9.10;99.90;;;;;;6176463;23;20013;-78
2024/04/01 02:28:03;;;;;;;6.72;5.70;;;9.10;99.90;;;;;;6149893;23;20009;-80
2024/04/01 02:30:30;;;;;;;7.53;6.45;;;9.00;99.90;;;;;;6115101;23;20323;-80
2024/04/01 02:32:56;;;;;;;7.32;5.75;;;9.00;99.90;;;;;;6125893;23;20020;-80
2024/04/01 02:35:23;;;;;;;7.38;5.65;;;9.00;99.90;;;;;;6114931;23;20019;-79
2024/04/01 02:37:49;;;;;;;6.82;5.90;;;9.00;99.90;;;;;;6176329;23;20024;-79
2024/04/01 02:40:15;;;;;;;7.38;5.57;;;9.00;99.90;;;;;;6150639;23;20403;-79
2024/04/01 02:42:41;;;;;;;8.63;6.80;;;9.00;99.90;;;;;;6116551;23;20016;-80
2024/04/01 02:45:08;;;;;;;6.85;6.13;;;9.00;99.90;;;;;;6115946;23;20016;-79
2024/04/01 02:47:35;;;;;;;7.35;6.55;;;9.00;99.90;;;;;;6115553;23;20012;-79
2024/04/01 02:50:02;;;;;;;7.93;6.00;;;9.00;99.90;;;;;;6114789;23;20354;-80
2024/04/01 02:52:28;;;;;;;7.90;6.85;;;8.90;99.90;;;;;;6176772;23;20020;-80
2024/04/01 02:54:54;;;;;;;8.50;6.97;;;8.90;99.90;;;;;;6139819;23;20017;-79
2024/04/01 02:57:21;;;;;;;11.85;7.80;;;8.90;99.90;;;;;;6139707;23;20013;-80
2024/04/01 02:59:48;;;;;;;10.85;7.20;;;8.90;99.90;;;;;;6151463;23;20372;-81
2024/04/01 03:02:14;;;;;;;7.63;6.35;;;8.80;99.90;;;;;;6116074;23;20017;-77
2024/04/01 03:04:41;;;;;;;8.38;6.45;;;8.90;99.90;;;;;;6150120;23;20052;-77
2024/04/01 03:07:08;;;;;;;7.10;6.40;;;8.90;99.90;;;;;;6136938;23;20393;-78
2024/04/01 03:09:35;;;;;;;7.63;5.97;;;8.90;99.90;;;;;;6138286;23;20008;-78
2024/04/01 03:12:02;;;;;;;6.47;4.85;;;8.80;99.90;;;;;;6114549;23;20009;-78
2024/04/01 03:14:28;;;;;;;7.00;5.90;;;8.80;99.90;;;;;;6089538;23;20016;-77
2024/04/01 03:16:54;;;;;;;8.68;5.88;;;8.80;99.90;;;;;;6139519;23;20021;-78
2024/04/01 03:19:21;;;;;;;6.63;5.40;;;8.80;99.90;;;;;;6124747;23;20402;-78
2024/04/01 03:21:48;;;;;;;5.85;4.70;;;8.80;99.90;;;;;;6176785;23;19997;-78
2024/04/01 03:24:14;;;;;;;6.50;3.88;;;8.80;99.90;;;;;;6150099;23;20012;-78
2024/04/01 03:26:40;;;;;;;4.72;3.67;;;8.70;99.90;;;;;;6139506;23;20013;-79
2024/04/01 03:29:07;;;;;;;4.18;3.33;;;8.70;99.90;;;;;;6149200;23;20000;-78
2024/04/01 03:31:33;;;;;;;4.43;3.40;;;8.70;99.90;;;;;;6150071;23;20015;-78
2024/04/01 03:33:59;;;;;;;4.97;3.17;;;8.70;99.90;;;;;;6150175;23;20486;-77
2024/04/01 03:36:25;;;;;;;7.00;4.38;;;8.60;99.90;;;;;;6090457;23;20276;-78
2024/04/01 03:38:53;;;;;;;5.28;3.33;;;8.60;99.90;;;;;;6116321;23;20017;-78
2024/04/01 03:41:19;;;;;;;6.00;3.75;;;8.60;99.90;;;;;;6149215;23;20005;-77
2024/04/01 03:43:45;;;;;;;4.40;3.17;;;8.60;99.90;;;;;;6114994;23;20012;-78
2024/04/01 03:46:12;;;;;;;5.03;3.05;;;8.60;99.90;;;;;;6148132;23;20008;-78
2024/04/01 03:48:38;;;;;;;3.08;2.40;;;8.60;99.90;;;;;;6175558;23;20430;-78
2024/04/01 03:51:05;;;;;;;4.47;2.72;;;8.60;99.90;;;;;;6149476;23;20020;-78
2024/04/01 03:53:31;;;;;;;5.32;2.55;;;8.50;99.90;;;;;;6139293;23;20016;-78
2024/04/01 03:55:58;;;;;;;3.92;2.80;;;8.50;99.90;;;;;;6175771;23;20020;-78
2024/04/01 03:58:24;;;;;;;3.63;2.38;;;8.50;99.90;;;;;;6139159;23;20354;-78
2024/04/01 04:00:50;;;;;;;4.05;2.65;;;8.50;99.90;;;;;;6114136;23;20005;-79
2024/04/01 04:03:17;;;;;;;3.72;2.97;;;8.60;99.90;;;;;;6141024;23;20009;-78
2024/04/01 04:05:43;;;;;;;2.50;2.00;;;8.60;99.90;;;;;;6124834;23;20009;-77
2024/04/01 04:08:09;;;;;;;2.83;1.98;;;8.60;99.90;;;;;;6115446;23;20561;-78
2024/04/01 04:10:35;;;;;;;4.85;2.20;;;8.60;99.90;;;;;;6114142;23;20426;-78
2024/04/01 04:13:02;;;;;;;4.22;2.22;;;8.70;99.90;;;;;;6091235;23;20460;-77
2024/04/01 04:15:28;;;;;;;2.85;2.47;;;8.60;99.90;;;;;;6115053;23;20019;-78
2024/04/01 04:17:55;;;;;;;4.00;1.88;;;8.70;99.90;;;;;;6149139;23;20016;-77
2024/04/01 04:20:21;;;;;;;2.97;2.00;;;8.70;99.90;;;;;;6090197;23;20024;-79
2024/04/01 04:22:47;;;;;;;5.03;1.73;;;8.60;99.90;;;;;;6138535;23;20016;-79
2024/04/01 04:25:14;;;;;;;5.15;2.10;;;8.70;99.90;;;;;;6175733;23;20453;-78
2024/04/01 04:27:40;;;;;;;3.13;1.55;;;8.60;99.90;;;;;;6149225;23;20005;-79
2024/04/01 04:30:11;;;;;;;3.25;2.00;;;8.70;99.90;;;;;;6090197;23;20028;-79
2024/04/01 04:32:40;;;;;;;4.47;2.13;;;8.60;99.90;;;;;;6114365;23;20009;-79
2024/04/01 04:35:09;;;;;;;2.63;1.83;;;8.60;99.90;;;;;;6114671;23;20021;-79
2024/04/01 04:37:38;;;;;;;3.00;1.50;;;8.70;99.90;;;;;;6115931;23;20043;-78
2024/04/01 04:40:05;;;;;;;2.00;1.60;;;8.70;99.90;;;;;;6141188;23;20005;-77
2024/04/01 04:42:32;;;;;;;2.95;1.30;;;8.70;99.90;;;;;;6178750;23;20001;-77
2024/04/01 04:44:58;;;;;;;2.40;1.73;;;8.70;99.90;;;;;;6092858;23;20013;-78
2024/04/01 04:47:25;;;;;;;3.08;2.10;;;8.70;99.90;;;;;;6116226;23;20307;-77
2024/04/01 04:49:51;;;;;;;1.92;1.30;;;8.70;99.90;;;;;;6148441;23;20168;-77
2024/04/01 04:52:17;;;;;;;2.33;1.48;;;8.70;99.90;;;;;;6122809;23;20060;-78
2024/04/01 08:07:25;;;;;;;4.13;1.58;;;10.30;99.90;;;;;;6252664;22;20034;-77
2024/04/01 08:09:53;;;;;;;1.90;1.20;;;10.30;99.90;;;;;;6098732;23;20021;-77
2024/04/01 08:12:19;;;;;;;2.22;1.40;;;10.30;99.90;;;;;;6098638;23;20016;-76
2024/04/01 08:14:45;;;;;;;2.30;1.73;;;10.30;99.90;;;;;;6111245;23;20013;-77
2024/04/01 08:17:12;;;;;;;2.53;1.77;;;10.40;99.90;;;;;;6172989;23;20442;-77
2024/04/01 08:19:38;;;;;;;2.88;1.60;;;10.40;99.90;;;;;;6174121;23;20001;-83
2024/04/01 08:22:04;;;;;;;2.53;1.50;;;10.40;99.90;;;;;;6172800;23;20008;-79
2024/04/01 08:24:30;;;;;;;3.03;1.42;;;10.50;99.90;;;;;;6136792;23;20013;-78
2024/04/01 08:26:57;;;;;;;2.95;1.73;;;10.50;99.90;;;;;;6173839;23;20001;-80
2024/04/01 08:29:23;;;;;;;1.80;1.42;;;10.50;99.90;;;;;;6113547;23;20431;-79
2024/04/01 08:31:49;;;;;;;3.70;2.42;;;10.60;99.90;;;;;;6198243;23;20028;-76
2024/04/01 08:34:16;;;;;;;3.85;2.05;;;10.60;99.90;;;;;;6113980;23;20016;-78
2024/04/01 08:36:42;;;;;;;2.42;1.92;;;10.60;99.90;;;;;;6171606;23;20028;-80
2024/04/01 08:39:08;;;;;;;4.03;2.70;;;10.60;99.90;;;;;;6174270;23;20013;-82
2024/04/01 08:42:06;;;;;;;4.15;3.28;;;10.60;99.90;;;;;;6136709;23;20020;-80
2024/04/01 08:44:33;;;;;;;3.63;3.20;;;10.70;99.90;;;;;;6145615;23;20005;-79
2024/04/01 08:47:00;;;;;;;5.70;3.35;;;10.70;99.90;;;;;;6123573;23;20483;-81
2024/04/01 08:49:38;;;;;;;6.90;4.10;;;10.70;99.90;;;;;;6148346;23;20016;-83
2024/04/01 08:52:08;;;;;;;3.50;3.20;;;10.70;99.90;;;;;;6148668;23;20013;-82
2024/04/01 08:54:35;;;;;;;4.18;3.78;;;10.70;99.90;;;;;;6123121;23;20092;-82
2024/04/01 08:57:01;;;;;;;5.20;4.03;;;10.70;99.90;;;;;;6087922;23;20442;-81
2024/04/01 08:59:29;;;;;;;6.05;5.03;;;10.70;99.90;;;;;;6172199;23;20510;-78
2024/04/01 09:01:55;;;;;;;4.53;4.13;;;10.70;99.90;;;;;;6148268;23;20008;-81
2024/04/01 09:04:22;;;;;;;6.47;4.97;;;10.70;99.90;;;;;;6142856;23;20016;-80
2024/04/01 09:06:48;;;;;;;6.32;4.97;;;10.70;99.90;;;;;;6140812;23;20001;-77
2024/04/01 09:09:15;;;;;;;6.68;5.68;;;10.80;99.90;;;;;;6119165;23;20017;-81
2024/04/01 09:11:42;;;;;;;6.35;5.78;;;10.80;99.90;;;;;;6109320;23;20005;-78
2024/04/01 09:14:09;;;;;;;7.93;6.63;;;10.80;99.90;;;;;;6145859;23;20001;-80
2024/04/01 09:16:36;;;;;;;6.35;5.78;;;10.80;99.90;;;;;;6119681;23;20009;-81
2024/04/01 09:19:09;;;;;;;6.55;5.95;;;10.90;99.90;;;;;;6094597;23;20028;-79
2024/04/01 09:21:35;;;;;;;7.38;6.68;;;10.90;99.90;;;;;;6110240;23;20014;-80
2024/04/01 09:24:03;;;;;;;5.53;5.03;;;10.90;99.90;;;;;;6085223;23;20002;-77
2024/04/01 09:26:30;;;;;;;7.13;6.45;;;10.90;99.90;;;;;;6108189;23;20001;-77
2024/04/01 09:28:57;;;;;;;6.60;6.05;;;11.00;99.90;;;;;;6084569;23;20016;-79
2024/04/01 09:31:23;;;;;;;5.55;5.05;;;10.90;99.90;;;;;;6143966;23;20001;-77
2024/04/01 09:33:51;;;;;;;4.65;4.25;;;11.00;99.90;;;;;;6143360;23;20401;-78
2024/04/01 09:36:17;;;;;;;5.30;3.58;;;11.10;99.90;;;;;;6118156;23;20447;-78
2024/04/01 09:38:46;;;;;;;7.38;6.45;;;11.20;99.90;;;;;;6145982;23;20021;-77
2024/04/01 09:41:12;;;;;;;5.78;5.18;;;11.30;99.90;;;;;;6061017;23;20020;-77
2024/04/01 09:43:38;;;;;;;6.13;5.55;;;11.30;99.90;;;;;;6085100;23;20020;-78
2024/04/01 09:46:05;;;;;;;7.80;5.95;;;11.30;99.90;;;;;;6108125;23;20331;-77
2024/04/01 09:48:31;;;;;;;6.03;5.40;;;11.30;99.90;;;;;;6083896;23;20014;-78
2024/04/01 09:50:59;;;;;;;6.32;5.72;;;11.20;99.90;;;;;;6143491;23;20009;-79
2024/04/01 09:53:28;;;;;;;6.38;5.68;;;11.10;99.90;;;;;;6145810;23;20004;-78
2024/04/01 09:56:01;;;;;;;6.13;5.47;;;11.10;99.90;;;;;;6118103;23;20461;-78
2024/04/01 09:58:32;;;;;;;5.70;5.18;;;11.10;99.90;;;;;;6144459;23;20009;-79
2024/04/01 10:01:22;;;;;;;5.53;4.55;;;11.20;99.90;;;;;;6060172;23;20013;-78
2024/04/01 10:04:10;;;;;;;8.18;5.25;;;11.20;99.90;;;;;;6109077;23;20012;-75
2024/04/01 10:06:36;;;;;;;5.38;4.97;;;11.30;99.90;;;;;;6085080;23;20016;-75
2024/04/01 10:09:22;;;;;;;7.05;6.45;;;11.30;99.90;;;;;;6106339;23;20001;-75
2024/04/01 10:12:22;;;;;;;5.68;5.13;;;11.40;99.90;;;;;;6175433;23;20001;-78
2024/04/01 10:14:51;;;;;;;5.70;5.20;;;11.40;99.90;;;;;;6124107;23;20000;-77
2024/04/01 10:17:46;;;;;;;5.35;4.68;;;11.50;99.90;;;;;;6149397;23;20009;-78
2024/04/01 10:21:06;;;;;;;7.53;5.15;;;11.50;99.90;;;;;;6106307;23;20021;-78
2024/04/01 10:23:50;;;;;;;5.50;5.00;;;11.50;99.90;;;;;;6050227;23;20162;-78
2024/04/01 10:26:57;;;;;;;5.70;5.10;;;11.60;99.90;;;;;;6046671;23;20014;-82
2024/04/01 10:29:53;;;;;;;4.68;4.28;;;11.60;99.90;;;;;;6042434;23;20014;-79
2024/04/01 10:32:41;;;;;;;5.50;4.95;;;11.70;99.90;;;;;;6018726;23;20026;-80
2024/04/01 10:35:10;;;;;;;9.27;8.23;;;11.60;99.90;;;;;;6068926;23;20021;-80
2024/04/01 10:37:55;;;;;;;6.28;5.22;;;11.70;99.90;;;;;;6055242;23;20575;-76
2024/04/01 10:41:02;;;;;;;10.00;7.35;;;11.60;99.90;;;;;;6023626;23;20380;-78
2024/04/01 10:43:53;;;;;;;6.55;5.82;;;11.70;99.90;;;;;;6056229;23;20014;-77
2024/04/01 10:46:35;;;;;;;5.57;5.05;;;11.70;99.90;;;;;;6049160;23;20055;-79
2024/04/01 10:49:29;;;;;;;6.05;5.13;;;11.80;99.90;;;;;;6080924;23;20006;-81
2024/04/01 10:52:14;;;;;;;4.82;4.25;;;11.80;99.90;;;;;;6047114;23;20029;-83
2024/04/01 10:55:02;;;;;;;5.30;4.75;;;11.90;99.90;;;;;;6072080;23;20013;-81
2024/04/01 10:57:56;;;;;;;5.38;4.85;;;11.90;99.90;;;;;;6059639;23;20533;-79
2024/04/01 11:00:28;;;;;;;7.63;6.68;;;12.00;99.90;;;;;;6136816;23;20021;-77
2024/04/01 11:03:10;;;;;;;6.38;5.75;;;12.00;99.90;;;;;;6148183;23;20005;-80
2024/04/01 11:05:55;;;;;;;5.15;4.47;;;12.00;99.90;;;;;;6174055;23;20008;-79
2024/04/01 11:09:12;;;;;;;5.60;5.10;;;12.10;99.90;;;;;;6136621;23;20452;-79
2024/04/01 11:11:53;;;;;;;6.13;4.82;;;12.20;99.90;;;;;;6072664;23;20007;-78
2024/04/01 11:14:19;;;;;;;4.97;4.57;;;12.20;99.90;;;;;;6060928;23;20138;-77
2024/04/01 11:16:53;;;;;;;6.35;5.15;;;12.30;99.90;;;;;;6131220;23;20008;-77
2024/04/01 11:19:53;;;;;;;6.80;5.90;;;12.40;99.90;;;;;;6149837;23;20013;-77
2024/04/01 11:22:55;;;;;;;6.40;5.80;;;12.50;99.90;;;;;;6140788;23;20001;-77
2024/04/01 11:25:37;;;;;;;7.50;6.20;;;12.50;99.90;;;;;;6150670;23;20004;-77
2024/04/01 11:28:14;;;;;;;7.32;6.40;;;12.40;99.90;;;;;;6139577;23;20016;-77
2024/04/01 11:30:44;;;;;;;5.22;4.50;;;12.30;99.90;;;;;;6150727;23;20008;-77
2024/04/01 11:33:13;;;;;;;6.07;5.10;;;12.20;99.90;;;;;;6125974;23;19997;-77
2024/04/01 11:35:52;;;;;;;5.68;5.18;;;12.10;99.90;;;;;;6139353;23;20013;-77
2024/04/01 11:39:03;;;;;;;7.35;6.63;;;12.10;99.90;;;;;;6164328;23;20005;-76
2024/04/01 11:41:33;;;;;;;9.48;8.10;;;12.00;99.90;;;;;;6150990;23;20012;-77
2024/04/01 11:44:00;;;;;;;10.85;7.80;;;12.00;99.90;;;;;;6150763;23;19997;-77
2024/04/01 11:46:27;;;;;;;8.77;7.40;;;12.00;99.90;;;;;;6138603;23;20013;-77
2024/04/01 11:48:54;;;;;;;9.90;7.80;;;11.90;99.90;;;;;;6150657;23;20008;-77
2024/04/01 11:51:35;;;;;;;7.28;6.57;;;11.90;99.90;;;;;;6150172;23;20008;-77
2024/04/01 11:54:02;;;;;;;8.93;6.05;;;12.00;99.90;;;;;;6139884;23;20488;-77
2024/04/01 11:56:39;;;;;;;8.85;7.78;;;12.10;99.90;;;;;;6138620;23;20643;-77
2024/04/01 11:59:09;;;;;;;8.43;5.82;;;12.10;99.90;;;;;;6174236;23;20028;-77
2024/04/01 12:01:41;;;;;;;4.75;4.18;;;12.20;99.90;;;;;;6114421;23;20008;-77
2024/04/01 12:04:18;;;;;;;7.60;4.00;;;12.30;99.90;;;;;;6176259;23;20442;-77
2024/04/01 12:06:47;;;;;;;5.50;3.53;;;12.40;99.90;;;;;;6114663;23;20020;-77
2024/04/01 12:09:14;;;;;;;5.45;3.75;;;12.60;99.90;;;;;;6109885;23;20021;-77
2024/04/01 12:11:46;;;;;;;4.65;3.38;;;12.80;99.90;;;;;;6173330;23;20008;-77
2024/04/01 12:14:14;;;;;;;8.15;3.88;;;12.90;99.90;;;;;;6174371;23;20001;-77
2024/04/01 12:16:45;;;;;;;4.78;2.90;;;13.00;99.90;;;;;;6176032;23;20434;-77
2024/04/01 12:19:12;;;;;;;4.88;3.15;;;13.20;99.90;;;;;;6174516;23;20001;-77
2024/04/01 12:21:45;;;;;;;7.55;2.47;;;13.40;99.90;;;;;;6151339;23;20005;-78
2024/04/01 12:24:19;;;;;;;8.75;2.55;;;13.60;99.90;;;;;;6178094;23;20001;-78
2024/04/01 12:26:51;;;;;;;4.22;1.80;;;13.70;99.90;;;;;;6149494;23;20001;-78
2024/04/01 12:29:18;;;;;;;8.23;2.15;;;13.80;99.90;;;;;;6149658;23;20461;-78
2024/04/01 12:31:50;;;;;;;4.28;1.35;;;14.00;99.90;;;;;;6115605;23;20257;-79
2024/04/01 12:34:16;;;;;;;3.33;1.27;;;14.30;99.90;;;;;;6175147;23;20000;-77
2024/04/01 12:36:46;;;;;;;5.43;1.05;;;14.60;99.90;;;;;;6138707;23;20445;-78
2024/04/01 12:39:13;;;;;;;3.88;0.90;;;14.90;99.90;;;;;;6140474;23;20316;-77
2024/04/01 12:41:43;;;;;;;3.33;0.80;;;15.30;99.90;;;;;;6139850;23;20017;-79
2024/04/01 12:44:11;;;;;;;3.85;0.75;;;15.40;99.90;;;;;;6175797;23;20013;-77
2024/04/01 12:46:42;;;;;;;6.05;1.35;;;15.70;99.90;;;;;;6166604;23;19997;-79
2024/04/01 12:49:15;;;;;;;5.38;1.00;;;16.10;99.90;;;;;;6136896;23;20016;-79
2024/04/01 12:51:44;;;;;;;5.95;0.90;;;16.20;99.90;;;;;;6178216;23;20020;-82
2024/04/01 12:54:27;;;;;;;4.00;0.75;;;16.30;99.90;;;;;;6141021;23;20020;-81
2024/04/01 12:57:10;;;;;;;3.10;0.73;;;16.10;99.90;;;;;;6176016;23;20020;-81
2024/04/01 13:00:01;;;;;;;3.80;0.60;;;15.90;99.90;;;;;;6141464;23;20017;-82
2024/04/01 13:03:08;;;;;;;3.15;0.70;;;15.60;99.90;;;;;;6141477;23;20028;-80
2024/04/01 13:05:57;;;;;;;6.22;0.82;;;15.30;99.90;;;;;;6110918;23;20013;-80
2024/04/01 13:08:46;;;;;;;5.43;1.17;;;15.40;99.90;;;;;;6117782;23;20017;-82
2024/04/01 13:11:33;;;;;;;3.20;0.73;;;15.70;99.90;;;;;;6112487;23;20016;-83
2024/04/01 13:13:59;;;;;;;3.78;0.60;;;16.00;99.90;;;;;;6142140;23;20521;-80
2024/04/01 13:16:53;;;;;;;2.33;0.70;;;15.90;99.90;;;;;;6141935;23;20020;-83
2024/04/01 13:19:59;;;;;;;2.95;0.63;;;15.80;99.90;;;;;;6147950;23;20013;-82
2024/04/01 13:22:56;;;;;;;2.92;0.68;;;15.80;99.90;;;;;;6107207;23;20022;-84
2024/04/01 13:26:00;;;;;;;3.95;0.60;;;15.90;99.90;;;;;;6175417;23;20009;-82
2024/04/01 13:28:44;;;;;;;2.95;0.80;;;16.20;99.90;;;;;;6179239;23;20016;-81
2024/04/01 13:31:20;;;;;;;1.85;0.50;;;16.40;99.90;;;;;;6112907;23;20013;-80
2024/04/01 13:34:07;;;;;;;3.08;0.52;;;16.40;99.90;;;;;;6142548;23;20028;-80
2024/04/01 13:36:52;;;;;;;3.30;0.50;;;16.30;99.90;;;;;;6179002;23;20005;-81
2024/04/01 13:39:46;;;;;;;2.33;0.57;;;16.20;99.90;;;;;;6147263;23;20013;-82
2024/04/01 13:42:18;;;;;;;1.00;0.40;;;16.10;99.90;;;;;;6141949;23;20005;-82
2024/04/01 13:45:19;;;;;;;2.10;0.43;;;16.30;99.90;;;;;;6117719;23;20013;-81
2024/04/01 13:48:07;;;;;;;2.30;0.40;;;16.40;99.90;;;;;;6149781;23;20009;-81
2024/04/01 13:50:54;;;;;;;2.47;0.45;;;16.20;99.90;;;;;;6141352;23;20005;-80
2024/04/01 13:53:59;;;;;;;1.98;0.38;;;16.00;99.90;;;;;;6179506;23;20461;-81
2024/04/01 13:56:50;;;;;;;2.97;0.47;;;15.70;99.90;;;;;;6079464;23;20010;-82
2024/04/01 13:59:27;;;;;;;1.67;0.40;;;15.60;99.90;;;;;;6129096;23;20331;-80
2024/04/01 14:02:25;;;;;;;3.08;0.60;;;15.50;99.90;;;;;;6116593;23;20009;-80
2024/04/01 14:05:14;;;;;;;2.15;0.40;;;15.40;99.90;;;;;;6121352;23;20009;-79
2024/04/01 14:07:40;;;;;;;3.15;0.40;;;15.40;99.90;;;;;;6116611;23;20009;-79
2024/04/01 14:10:09;;;;;;;3.80;0.50;;;15.30;99.90;;;;;;6167464;23;20001;-82
2024/04/01 14:12:45;;;;;;;3.38;0.50;;;15.30;99.90;;;;;;6152609;23;20012;-82
2024/04/01 14:15:22;;;;;;;2.47;0.50;;;15.20;99.90;;;;;;6152406;23;19993;-81
2024/04/01 14:18:29;;;;;;;2.97;0.50;;;15.10;99.90;;;;;;6141910;23;20059;-81
2024/04/01 14:20:56;;;;;;;2.10;0.40;;;15.20;99.90;;;;;;6053773;23;20011;-80
2024/04/01 14:23:23;;;;;;;2.63;0.70;;;15.10;99.90;;;;;;6077882;23;20010;-81
2024/04/01 14:25:50;;;;;;;1.45;0.52;;;15.20;99.90;;;;;;6052854;23;20010;-81
2024/04/01 14:28:17;;;;;;;2.47;0.50;;;15.30;99.90;;;;;;6076748;23;20015;-81
2024/04/01 14:30:45;;;;;;;1.60;0.40;;;15.40;99.90;;;;;;6051438;23;20018;-79
2024/04/01 14:33:20;;;;;;;3.10;0.90;;;15.40;99.90;;;;;;6086877;23;20597;-82
2024/04/01 14:35:47;;;;;;;1.75;0.52;;;15.30;99.90;;;;;;6057197;23;20006;-81
2024/04/01 14:38:15;;;;;;;1.80;0.40;;;15.30;99.90;;;;;;6053470;23;20010;-82
2024/04/01 14:40:43;;;;;;;1.77;0.70;;;15.20;99.90;;;;;;6063508;23;20479;-80
2024/04/01 14:43:10;;;;;;;2.05;0.70;;;15.20;99.90;;;;;;6078918;23;20014;-81
2024/04/01 14:45:38;;;;;;;2.63;1.10;;;15.10;99.90;;;;;;6054018;23;20110;-80
2024/04/01 14:48:05;;;;;;;4.65;1.00;;;15.00;99.90;;;;;;6083744;23;20416;-80
2024/04/01 14:50:32;;;;;;;3.63;0.68;;;14.90;99.90;;;;;;6052227;23;20006;-82
2024/04/01 14:52:59;;;;;;;1.60;0.52;;;14.80;99.90;;;;;;6076083;23;20453;-82
2024/04/01 14:55:26;;;;;;;1.80;0.57;;;14.70;99.90;;;;;;6107557;23;20490;-81
2024/04/01 14:57:54;;;;;;;3.50;0.90;;;14.60;99.90;;;;;;6140592;23;20001;-82
2024/04/01 15:00:24;;;;;;;1.80;0.50;;;14.60;99.90;;;;;;6177737;23;20009;-82
2024/04/01 15:02:51;;;;;;;2.63;0.70;;;14.40;99.90;;;;;;6175630;23;20012;-81
2024/04/01 15:05:19;;;;;;;2.08;0.80;;;14.40;99.90;;;;;;6141357;23;20437;-78
2024/04/01 15:07:45;;;;;;;1.75;0.60;;;14.30;99.90;;;;;;6140493;23;20013;-81
2024/04/01 15:10:12;;;;;;;3.15;1.00;;;14.20;99.90;;;;;;6150387;23;20335;-81
2024/04/01 15:12:39;;;;;;;2.55;0.90;;;14.10;99.90;;;;;;6116771;23;20005;-81
2024/04/01 15:15:08;;;;;;;1.65;0.60;;;14.10;99.90;;;;;;6142818;23;20001;-81
2024/04/01 15:17:38;;;;;;;2.65;0.90;;;14.10;99.90;;;;;;6117489;23;20016;-79
2024/04/01 15:20:06;;;;;;;2.70;0.90;;;14.10;99.90;;;;;;6141856;23;20009;-80
2024/04/01 15:22:34;;;;;;;1.38;0.60;;;14.00;99.90;;;;;;6152125;23;20001;-81
2024/04/01 15:25:03;;;;;;;2.10;0.88;;;14.00;99.90;;;;;;6151750;23;20008;-81
2024/04/01 15:27:29;;;;;;;2.03;0.60;;;14.00;99.90;;;;;;6117414;23;20471;-80
2024/04/01 15:29:57;;;;;;;1.08;0.73;;;14.00;99.90;;;;;;6151398;23;20169;-82
2024/04/01 15:32:24;;;;;;;1.85;0.50;;;14.10;99.90;;;;;;6151840;23;20000;-82
2024/04/01 15:34:51;;;;;;;2.00;0.68;;;14.10;99.90;;;;;;6152515;23;20000;-81
2024/04/01 15:37:18;;;;;;;2.35;0.80;;;14.10;99.90;;;;;;6178161;23;20035;-81
2024/04/01 15:39:45;;;;;;;2.88;0.55;;;14.10;99.90;;;;;;6178221;23;20008;-81
2024/04/01 15:42:13;;;;;;;2.95;0.60;;;14.20;99.90;;;;;;6118043;23;20013;-82
2024/04/01 15:44:40;;;;;;;1.50;0.60;;;14.20;99.90;;;;;;6156593;23;20241;-83
2024/04/01 15:47:07;;;;;;;1.25;0.45;;;14.30;99.90;;;;;;6123610;23;20023;-85
2024/04/01 15:49:33;;;;;;;1.38;0.55;;;14.40;99.90;;;;;;6166367;23;20025;-80
2024/04/01 15:52:01;;;;;;;1.60;0.50;;;14.40;99.90;;;;;;6179511;23;20005;-83
2024/04/01 15:54:28;;;;;;;2.65;0.70;;;14.40;99.90;;;;;;6117075;23;20024;-84
2024/04/01 15:56:55;;;;;;;2.97;0.88;;;14.40;99.90;;;;;;6117296;23;20009;-84
2024/04/01 15:59:23;;;;;;;2.67;1.05;;;14.40;99.90;;;;;;6141097;23;20458;-80
2024/04/01 16:01:49;;;;;;;2.17;1.00;;;14.40;99.90;;;;;;6159274;23;20013;-84
2024/04/01 16:04:17;;;;;;;2.38;0.80;;;14.30;99.90;;;;;;6093962;23;20327;-78
2024/04/01 16:06:45;;;;;;;1.92;1.02;;;14.20;99.90;;;;;;6148841;23;19997;-82
2024/04/01 16:09:15;;;;;;;3.47;1.30;;;14.20;99.90;;;;;;6169758;23;20005;-81
2024/04/01 16:11:45;;;;;;;2.83;1.65;;;14.10;99.90;;;;;;6116771;23;20474;-81
2024/04/01 16:14:16;;;;;;;2.05;1.02;;;14.00;99.90;;;;;;6178227;23;20001;-81
2024/04/01 16:16:43;;;;;;;1.77;0.75;;;13.90;99.90;;;;;;6151713;23;20012;-82
2024/04/01 16:19:17;;;;;;;1.88;1.27;;;13.80;99.90;;;;;;6141338;23;20005;-81
2024/04/01 16:22:08;;;;;;;1.80;1.00;;;13.80;99.90;;;;;;6151800;23;20001;-82
2024/04/01 16:24:41;;;;;;;3.15;1.50;;;13.80;99.90;;;;;;6151629;23;20001;-81
2024/04/01 16:27:23;;;;;;;2.47;1.52;;;13.80;99.90;;;;;;6117145;23;20020;-79